Date,TemperatureHighF,TemperatureAvgF,TemperatureLowF,DewpointHighF,DewpointAvgF,DewpointLowF,HumidityHigh,HumidityAvg,HumidityLow,PressureMaxIn,PressureMinIn,WindSpeedMaxMPH,WindSpeedAvgMPH,GustSpeedMaxMPH,PrecipitationSumIn
2012-12-1,29.3,27.6,25.0,27.0,22.4,13.6,91,82,53,30.61,30.48,3,1,7,0.00
2012-12-2,49.2,38.1,29.1,46.3,35.4,26.8,91,90,83,30.48,30.04,7,1,17,0.09
2012-12-3,58.1,46.2,31.2,46.8,40.9,28.9,91,83,61,30.28,30.02,6,2,16,0.00
2012-12-4,57.3,42.1,28.4,54.5,39.7,26.1,95,91,90,30.30,29.96,6,1,10,0.02
2012-12-5,57.5,47.7,31.8,54.5,38.0,18.7,91,70,53,30.13,29.83,10,6,20,0.03
2012-12-6,40.5,29.3,20.0,21.6,18.5,16.4,89,65,45,30.30,30.11,6,2,11,0.00
2012-12-7,44.5,32.9,19.7,37.8,28.8,16.6,91,85,70,30.28,30.04,4,1,10,0.03
2012-12-8,43.6,42.2,41.1,41.4,39.9,38.7,92,91,91,29.95,29.84,3,1,6,0.24
2012-12-9,43.6,38.5,31.6,40.0,34.3,29.5,92,85,65,30.28,29.95,4,1,5,0.16
2012-12-10,58.3,49.2,38.4,56.3,46.9,36.0,93,92,91,30.13,29.47,5,2,12,0.39
2012-12-11,54.7,42.6,31.7,52.1,33.8,21.4,91,72,52,30.14,29.51,8,3,13,0.01
2012-12-12,39.4,30.9,26.1,25.0,22.7,20.3,89,72,54,30.42,30.14,4,1,8,0.00
2012-12-13,44.4,29.6,22.5,29.1,23.4,19.7,91,79,50,30.46,30.28,3,1,6,0.00
2012-12-14,48.7,31.7,21.4,29.1,23.6,18.8,91,75,41,30.28,30.05,6,2,11,0.00
2012-12-15,42.2,30.9,24.7,28.0,23.8,20.1,91,76,50,30.32,30.16,4,1,7,0.00
2012-12-16,34.8,30.2,26.9,32.4,25.8,22.3,91,84,73,30.31,30.04,2,1,5,0.28
2012-12-17,35.2,32.5,30.1,32.8,30.2,27.8,92,91,91,30.05,29.77,3,2,9,0.43
2012-12-18,44.4,40.6,34.4,42.2,38.4,32.3,92,92,91,29.76,29.41,5,2,9,0.45
2012-12-19,44.1,39.6,30.4,39.7,32.9,27.2,95,77,67,30.02,29.43,10,5,19,0.00
2012-12-20,41.8,34.4,25.8,32.0,29.1,23.3,91,81,66,30.20,30.00,3,1,6,0.00
2012-12-21,53.5,41.7,33.9,50.5,38.2,30.5,91,87,77,30.00,29.05,10,4,18,0.79
2012-12-22,36.8,32.4,28.4,31.0,23.7,17.4,86,71,54,29.64,29.21,12,6,22,0.00
2012-12-23,37.4,31.7,26.3,25.6,21.3,17.2,78,65,54,29.86,29.64,9,3,19,0.00
2012-12-24,41.6,30.3,22.8,23.0,21.1,18.9,85,69,45,30.05,29.85,6,1,11,0.01
2012-12-25,32.9,28.8,22.7,28.4,24.6,18.6,92,84,74,30.21,29.96,3,1,8,0.03
2012-12-26,33.5,26.8,17.2,30.7,21.5,14.0,90,81,65,30.31,29.85,5,1,7,0.01
2012-12-27,41.4,34.9,29.3,39.0,32.5,26.2,91,91,88,29.87,29.24,7,4,17,1.35
2012-12-28,35.4,29.1,25.1,26.1,22.8,19.5,88,77,64,30.00,29.62,8,4,18,0.00
2012-12-29,31.8,27.5,22.5,27.5,24.2,19.6,91,87,75,30.00,29.37,4,1,9,0.11
2012-12-30,28.7,25.4,19.5,25.4,18.0,9.1,91,74,60,29.98,29.42,12,5,21,0.03
2012-12-31,33.0,24.2,9.9,23.7,17.1,6.0,85,74,64,30.05,29.77,8,2,18,0.00